createdAt,value
2018-01-15T00:02:14.766Z,72.72
2018-01-15T00:04:43.056Z,72.44
2018-01-15T00:07:11.341Z,72.45
2018-01-15T00:09:39.599Z,73.13
2018-01-15T00:12:07.923Z,73.00
2018-01-15T00:14:36.209Z,72.56
2018-01-15T00:17:05.288Z,72.23
2018-01-15T00:19:33.675Z,72.50
2018-01-15T00:22:01.941Z,72.75
2018-01-15T00:24:30.276Z,73.08
2018-01-15T00:26:58.553Z,73.03
2018-01-15T00:29:26.840Z,72.83
2018-01-15T00:31:55.216Z,72.68
2018-01-15T00:34:23.524Z,72.54
2018-01-15T00:36:52.691Z,73.64
2018-01-15T00:39:20.987Z,74.73
2018-01-15T00:41:49.230Z,75.61
2018-01-15T00:44:17.522Z,75.33
2018-01-15T00:46:45.784Z,75.66
2018-01-15T00:49:14.096Z,75.92
2018-01-15T00:51:42.340Z,75.24
2018-01-15T00:54:10.635Z,75.61
2018-01-15T00:56:38.891Z,75.66
2018-01-15T00:59:07.181Z,75.13
2018-01-15T01:01:35.426Z,74.83
2018-01-15T01:04:03.758Z,74.69
2018-01-15T01:06:32.050Z,74.40
2018-01-15T01:09:00.329Z,74.04
2018-01-15T01:11:28.640Z,73.83
2018-01-15T01:13:56.916Z,73.54
2018-01-15T01:16:25.288Z,73.28
2018-01-15T01:18:53.599Z,72.56
2018-01-15T01:21:21.851Z,72.02
2018-01-15T01:23:50.155Z,72.46
2018-01-15T01:26:18.435Z,72.73
2018-01-15T01:28:46.711Z,72.56
2018-01-15T01:31:15.010Z,72.08
2018-01-15T01:33:43.262Z,71.95
2018-01-15T01:36:11.519Z,72.07
2018-01-15T01:38:39.818Z,72.02
2018-01-15T01:41:08.076Z,72.14
2018-01-15T01:43:36.383Z,71.97
2018-01-15T01:46:05.610Z,71.69
2018-01-15T01:48:33.912Z,72.23
2018-01-15T01:51:02.136Z,72.51
2018-01-15T01:53:30.438Z,72.62
2018-01-15T01:55:58.689Z,72.56
2018-01-15T01:58:27.001Z,72.42
2018-01-15T02:00:55.267Z,71.94
2018-01-15T02:03:23.565Z,71.72
2018-01-15T02:05:51.836Z,71.96
2018-01-15T02:08:20.100Z,72.09
2018-01-15T02:10:48.462Z,72.31
2018-01-15T02:13:16.687Z,72.62
2018-01-15T02:15:44.998Z,72.24
2018-01-15T02:18:13.287Z,71.98
2018-01-15T02:20:41.593Z,71.53
2018-01-15T02:23:09.858Z,72.27
2018-01-15T02:25:38.163Z,72.43
2018-01-15T02:28:06.424Z,72.14
2018-01-15T02:30:34.741Z,72.37
2018-01-15T02:33:03.027Z,72.99
2018-01-15T02:35:31.343Z,73.66
2018-01-15T02:37:59.659Z,73.03
2018-01-15T02:40:28.340Z,74.17
2018-01-15T02:42:56.614Z,74.01
2018-01-15T02:45:24.881Z,74.49
2018-01-15T02:47:53.172Z,74.50
2018-01-15T02:50:21.452Z,74.30
2018-01-15T02:52:49.755Z,74.24
2018-01-15T02:55:18.043Z,73.68
2018-01-15T02:57:46.366Z,72.92
2018-01-15T03:00:14.622Z,72.72
2018-01-15T03:02:43.699Z,72.70
2018-01-15T03:05:11.986Z,72.46
2018-01-15T03:07:40.271Z,71.82
2018-01-15T03:10:08.567Z,71.73
2018-01-15T03:12:36.887Z,71.74
2018-01-15T03:15:05.133Z,71.67
2018-01-15T03:17:33.428Z,70.62
2018-01-15T03:20:01.747Z,70.61
2018-01-15T03:22:30.077Z,70.52
2018-01-15T03:24:58.382Z,71.19
2018-01-15T03:27:26.699Z,71.20
2018-01-15T03:29:54.975Z,70.97
2018-01-15T03:32:23.240Z,70.71
2018-01-15T03:34:51.540Z,70.90
2018-01-15T03:37:19.798Z,71.12
2018-01-15T03:39:48.083Z,71.06
2018-01-15T03:42:16.354Z,71.14
2018-01-15T03:44:44.639Z,71.66
2018-01-15T03:47:12.921Z,71.64
2018-01-15T03:49:41.203Z,71.82
2018-01-15T03:52:09.512Z,71.67
2018-01-15T03:54:37.816Z,71.85
2018-01-15T03:57:06.097Z,72.93
2018-01-15T03:59:34.372Z,73.10
2018-01-15T04:02:02.665Z,72.96
2018-01-15T04:04:30.936Z,72.54
2018-01-15T04:06:59.230Z,72.48
2018-01-15T04:09:27.501Z,72.22
2018-01-15T04:11:55.780Z,71.91
2018-01-15T04:14:24.050Z,71.76
2018-01-15T04:16:52.328Z,71.94
2018-01-15T04:19:20.602Z,71.86
2018-01-15T04:21:48.876Z,71.92
2018-01-15T04:24:17.183Z,71.47
2018-01-15T04:26:45.436Z,71.57
2018-01-15T04:29:13.716Z,71.60
2018-01-15T04:31:41.972Z,72.29
2018-01-15T04:34:10.261Z,71.93
2018-01-15T04:36:38.532Z,72.25
2018-01-15T04:39:06.825Z,72.22
2018-01-15T04:41:35.084Z,72.50
2018-01-15T04:44:04.159Z,73.30
2018-01-15T04:46:32.445Z,73.44
2018-01-15T04:49:00.735Z,73.01
2018-01-15T04:51:28.997Z,72.92
2018-01-15T04:53:57.303Z,73.03
2018-01-15T04:56:25.590Z,72.83
2018-01-15T04:58:53.888Z,72.91
2018-01-15T05:01:22.174Z,72.95
2018-01-15T05:03:50.445Z,72.88
2018-01-15T05:06:18.747Z,72.82
2018-01-15T05:08:47.017Z,72.39
2018-01-15T05:11:15.317Z,72.63
2018-01-15T05:13:43.594Z,72.48
2018-01-15T05:16:11.879Z,72.31
2018-01-15T05:18:40.140Z,72.20
2018-01-15T05:21:08.426Z,72.46
2018-01-15T05:23:36.718Z,72.59
2018-01-15T05:26:05.004Z,72.04
2018-01-15T05:28:33.269Z,72.07
2018-01-15T05:31:01.546Z,72.05
2018-01-15T05:33:29.811Z,71.93
2018-01-15T05:35:58.134Z,71.97
2018-01-15T05:38:26.441Z,72.29
2018-01-15T05:40:54.694Z,72.50
2018-01-15T05:43:23.002Z,72.64
2018-01-15T05:45:51.293Z,73.08
2018-01-15T05:48:19.603Z,72.67
2018-01-15T05:50:47.880Z,72.68
2018-01-15T05:53:16.179Z,72.38
2018-01-15T05:55:44.438Z,72.27
2018-01-15T05:58:12.728Z,72.52
2018-01-15T06:00:41.471Z,72.49
2018-01-15T06:03:10.129Z,72.06
2018-01-15T06:05:38.933Z,72.20
2018-01-15T06:08:07.199Z,72.21
2018-01-15T06:10:35.491Z,71.37
2018-01-15T06:13:03.768Z,70.83
2018-01-15T06:15:32.058Z,71.50
2018-01-15T06:18:00.323Z,71.46
2018-01-15T06:20:28.614Z,71.81
2018-01-15T06:22:56.930Z,71.69
2018-01-15T06:25:25.239Z,71.98
2018-01-15T06:27:53.539Z,72.12
2018-01-15T06:30:21.833Z,71.97
2018-01-15T06:32:50.101Z,72.09
2018-01-15T06:35:18.845Z,71.58
2018-01-15T06:37:47.137Z,71.50
2018-01-15T06:40:15.473Z,71.61
2018-01-15T06:42:43.742Z,71.50
2018-01-15T06:45:12.015Z,71.70
2018-01-15T06:47:40.321Z,71.12
2018-01-15T06:50:08.583Z,71.23
2018-01-15T06:52:36.991Z,71.28
2018-01-15T06:55:05.239Z,71.38
2018-01-15T06:57:33.544Z,71.57
2018-01-15T07:00:01.818Z,71.67
2018-01-15T07:02:30.130Z,71.49
2018-01-15T07:04:58.413Z,71.42
2018-01-15T07:07:26.766Z,71.33
2018-01-15T07:09:55.057Z,71.95
2018-01-15T07:12:24.243Z,71.94
2018-01-15T07:14:52.573Z,71.75
2018-01-15T07:17:20.871Z,71.71
2018-01-15T07:22:17.440Z,71.82
2018-01-15T07:24:45.747Z,71.63
2018-01-15T07:27:14.035Z,71.98
2018-01-15T07:29:42.345Z,72.07
2018-01-15T07:32:10.606Z,72.21
2018-01-15T07:34:38.912Z,72.09
2018-01-15T07:37:07.184Z,72.16
2018-01-15T07:39:35.515Z,72.03
2018-01-15T07:42:03.763Z,71.92
2018-01-15T07:44:32.088Z,71.89
2018-01-15T07:47:00.410Z,72.21
2018-01-15T07:49:28.709Z,72.33
2018-01-15T07:51:56.979Z,72.69
2018-01-15T07:54:25.325Z,72.62
2018-01-15T07:56:53.600Z,72.54
2018-01-15T07:59:21.911Z,72.09
2018-01-15T08:01:50.188Z,72.19
2018-01-15T08:04:18.495Z,71.80
2018-01-15T08:06:46.868Z,71.78
2018-01-15T08:09:15.145Z,71.62
2018-01-15T08:11:43.537Z,71.57
2018-01-15T08:14:11.846Z,71.83
2018-01-15T08:16:40.210Z,72.26
2018-01-15T08:19:08.488Z,72.63
2018-01-15T08:21:36.812Z,72.72
2018-01-15T08:24:05.197Z,72.61
2018-01-15T08:26:33.511Z,72.94
2018-01-15T08:29:01.792Z,72.94
2018-01-15T08:31:30.095Z,73.01
2018-01-15T08:33:58.391Z,73.04
2018-01-15T08:36:26.702Z,72.05
2018-01-15T08:38:55.034Z,71.59
2018-01-15T08:41:23.349Z,71.34
2018-01-15T08:43:51.686Z,71.77
2018-01-15T08:46:19.952Z,71.64
2018-01-15T08:48:48.254Z,71.46
2018-01-15T08:51:16.556Z,71.71
2018-01-15T08:53:44.865Z,72.18
2018-01-15T08:56:13.160Z,72.00
2018-01-15T08:58:41.515Z,71.96
2018-01-15T09:01:09.832Z,71.71
2018-01-15T09:03:38.092Z,70.89
2018-01-15T09:06:06.358Z,70.88
2018-01-15T09:08:34.661Z,71.35
2018-01-15T09:11:02.935Z,71.65
2018-01-15T09:13:31.251Z,71.69
2018-01-15T09:15:59.552Z,71.55
2018-01-15T09:18:27.819Z,71.64
2018-01-15T09:20:56.136Z,71.76
2018-01-15T09:23:24.414Z,71.67
2018-01-15T09:25:52.775Z,71.43
2018-01-15T09:28:21.016Z,71.46
2018-01-15T09:30:49.341Z,71.59
2018-01-15T09:33:17.637Z,71.45
2018-01-15T09:35:45.978Z,71.32
2018-01-15T09:38:14.255Z,71.31
2018-01-15T09:40:42.571Z,71.69
2018-01-15T09:43:10.926Z,71.04
2018-01-15T09:45:39.408Z,70.74
2018-01-15T09:48:07.680Z,70.79
2018-01-15T09:50:36.006Z,70.38
2018-01-15T09:53:04.355Z,70.03
2018-01-15T09:55:32.744Z,69.78
2018-01-15T09:58:00.997Z,69.69
2018-01-15T10:00:29.333Z,69.42
2018-01-15T10:02:57.655Z,69.78
2018-01-15T10:05:25.920Z,69.74
2018-01-15T10:07:54.347Z,69.96
2018-01-15T10:10:22.683Z,70.10
2018-01-15T10:12:50.950Z,69.49
2018-01-15T10:15:19.287Z,69.81
2018-01-15T10:17:47.562Z,70.13
2018-01-15T10:20:15.855Z,70.51
2018-01-15T10:22:44.138Z,70.47
2018-01-15T10:25:12.467Z,70.28
2018-01-15T10:27:40.748Z,71.27
2018-01-15T10:30:09.035Z,71.25
2018-01-15T10:32:37.316Z,70.78
2018-01-15T10:35:05.651Z,71.03
2018-01-15T10:37:36.467Z,71.04
2018-01-15T10:40:05.421Z,70.58
2018-01-15T10:42:33.712Z,70.76
2018-01-15T10:45:02.078Z,70.77
2018-01-15T10:47:30.356Z,70.94
2018-01-15T10:49:58.698Z,71.07
2018-01-15T10:52:27.003Z,70.91
2018-01-15T10:54:55.308Z,70.81
2018-01-15T10:57:23.609Z,70.86
2018-01-15T10:59:51.980Z,70.84
2018-01-15T11:02:20.342Z,70.81
2018-01-15T11:04:48.655Z,71.15
2018-01-15T11:07:16.991Z,71.39
2018-01-15T11:09:45.236Z,71.58
2018-01-15T11:12:13.539Z,71.58
2018-01-15T11:14:41.825Z,71.01
2018-01-15T11:17:10.112Z,70.89
2018-01-15T11:19:38.421Z,71.18
2018-01-15T11:22:06.724Z,70.66
2018-01-15T11:24:35.013Z,70.69
2018-01-15T11:27:03.307Z,70.43
2018-01-15T11:29:31.590Z,70.47
2018-01-15T11:31:59.933Z,70.25
2018-01-15T11:34:28.235Z,70.26
2018-01-15T11:36:56.529Z,70.23
2018-01-15T11:39:24.852Z,69.89
2018-01-15T11:41:53.308Z,70.00
2018-01-15T11:44:21.723Z,69.66
2018-01-15T11:46:50.022Z,69.51
2018-01-15T11:49:18.412Z,69.23
2018-01-15T11:51:46.701Z,69.19
2018-01-15T11:54:15.009Z,69.27
2018-01-15T11:56:43.346Z,69.73
2018-01-15T11:59:12.614Z,69.35
2018-01-15T12:01:40.908Z,69.14
2018-01-15T12:04:09.191Z,69.14
2018-01-15T12:06:37.494Z,68.96
2018-01-15T12:09:05.871Z,68.60
2018-01-15T12:11:34.221Z,68.58
2018-01-15T12:14:02.565Z,68.12
2018-01-15T12:16:30.856Z,68.65
2018-01-15T12:18:59.107Z,68.43
2018-01-15T12:21:27.398Z,68.27
2018-01-15T12:23:55.675Z,68.42
2018-01-15T12:26:24.021Z,68.04
2018-01-15T12:28:52.283Z,67.93
2018-01-15T12:31:20.626Z,67.94
2018-01-15T12:33:48.875Z,67.81
2018-01-15T12:36:17.189Z,67.65
2018-01-15T12:38:46.350Z,67.75
2018-01-15T12:41:14.653Z,67.82
2018-01-15T12:43:42.944Z,67.76
2018-01-15T12:46:11.324Z,67.87
2018-01-15T12:48:39.636Z,67.52
2018-01-15T12:51:07.919Z,67.43
2018-01-15T12:53:36.691Z,67.41
2018-01-15T12:56:05.047Z,67.63
2018-01-15T12:58:33.764Z,67.35
2018-01-15T13:01:02.035Z,67.31
2018-01-15T13:03:30.620Z,67.44
2018-01-15T13:06:07.563Z,67.58
2018-01-15T13:11:41.412Z,67.49
2018-01-15T13:14:09.795Z,67.51
2018-01-15T13:16:38.064Z,67.30
2018-01-15T13:19:06.394Z,67.64
2018-01-15T13:21:34.647Z,67.83
2018-01-15T13:24:03.699Z,68.01
2018-01-15T13:26:34.225Z,67.65
2018-01-15T13:29:03.221Z,67.58
2018-01-15T13:31:31.555Z,67.24
2018-01-15T13:33:59.891Z,67.59
2018-01-15T13:36:28.249Z,67.38
2018-01-15T13:38:56.486Z,67.32
2018-01-15T13:41:24.809Z,67.49
2018-01-15T13:43:53.152Z,67.40
2018-01-15T13:46:21.478Z,67.76
2018-01-15T13:48:49.752Z,67.84
2018-01-15T13:51:18.052Z,67.60
2018-01-15T13:53:46.386Z,67.63
2018-01-15T13:56:14.688Z,67.32
2018-01-15T13:58:42.928Z,66.89
2018-01-15T14:01:11.222Z,67.28
2018-01-15T14:03:39.467Z,67.55
2018-01-15T14:06:07.793Z,67.80
2018-01-15T14:08:36.090Z,67.58
2018-01-15T14:11:05.247Z,67.84
2018-01-15T14:13:33.522Z,67.78
2018-01-15T14:16:01.817Z,67.52
2018-01-15T14:18:30.086Z,67.54
2018-01-15T14:20:58.440Z,67.82
2018-01-15T14:23:26.744Z,67.92
2018-01-15T14:25:54.964Z,67.77
2018-01-15T14:28:23.320Z,68.20
2018-01-15T14:30:51.679Z,68.47
2018-01-15T14:33:19.990Z,67.20
2018-01-15T14:35:48.305Z,67.63
2018-01-15T14:38:16.630Z,67.95
2018-01-15T14:40:44.880Z,68.14
2018-01-15T14:43:13.156Z,68.05
2018-01-15T14:45:41.463Z,68.05
2018-01-15T14:48:09.756Z,68.48
2018-01-15T14:50:38.070Z,68.66
2018-01-15T14:53:06.339Z,68.48
2018-01-15T14:55:34.637Z,68.67
2018-01-15T14:58:02.899Z,68.73
2018-01-15T15:00:31.235Z,68.46
2018-01-15T15:02:59.540Z,68.87
2018-01-15T15:05:27.787Z,68.83
2018-01-15T15:07:56.136Z,69.46
2018-01-15T15:10:24.454Z,69.74
2018-01-15T15:12:52.763Z,71.37
2018-01-15T15:15:21.816Z,71.37
2018-01-15T15:17:51.031Z,71.67
2018-01-15T15:20:19.295Z,72.90
2018-01-15T15:22:47.606Z,73.14
2018-01-15T15:25:15.924Z,74.81
2018-01-15T15:27:44.222Z,74.45
2018-01-15T15:30:14.840Z,75.49
2018-01-15T15:32:43.161Z,75.83
2018-01-15T15:35:12.111Z,75.82
2018-01-15T15:37:41.333Z,74.99
2018-01-15T15:40:09.651Z,75.96
2018-01-15T15:42:37.975Z,75.68
2018-01-15T15:45:06.308Z,75.97
2018-01-15T15:47:34.565Z,75.21
2018-01-15T15:50:02.920Z,75.99
2018-01-15T15:52:31.181Z,76.01
2018-01-15T15:54:59.463Z,75.96
2018-01-15T15:57:27.765Z,76.33
2018-01-15T15:59:56.057Z,76.75
2018-01-15T16:02:24.354Z,77.47
2018-01-15T16:04:52.646Z,77.11
2018-01-15T16:07:20.952Z,77.28
2018-01-15T16:09:49.567Z,77.28
2018-01-15T16:12:17.835Z,77.85
2018-01-15T16:14:46.105Z,77.92
2018-01-15T16:17:14.393Z,78.28
2018-01-15T16:19:42.690Z,78.23
2018-01-15T16:22:22.685Z,78.09
2018-01-15T16:24:50.935Z,77.71
2018-01-15T16:27:19.227Z,77.75
2018-01-15T16:29:47.495Z,77.67
2018-01-15T16:32:15.809Z,77.16
2018-01-15T16:34:44.080Z,77.40
2018-01-15T16:37:12.380Z,77.73
2018-01-15T16:39:40.667Z,77.41
2018-01-15T16:42:08.931Z,77.19
2018-01-15T16:44:38.396Z,77.40
2018-01-15T16:47:06.652Z,77.47
2018-01-15T16:49:35.533Z,77.04
2018-01-15T16:52:03.845Z,77.20
2018-01-15T16:54:32.168Z,77.26
2018-01-15T16:57:00.438Z,77.46
2018-01-15T16:59:28.727Z,77.43
2018-01-15T17:01:56.991Z,76.85
2018-01-15T17:04:25.266Z,77.59
2018-01-15T17:06:53.553Z,77.83
2018-01-15T17:09:21.830Z,77.54
2018-01-15T17:11:50.089Z,77.48
2018-01-15T17:14:18.361Z,76.79
2018-01-15T17:16:46.694Z,78.05
2018-01-15T17:19:14.935Z,76.91
2018-01-15T17:21:43.207Z,77.94
2018-01-15T17:24:11.515Z,77.28
2018-01-15T17:26:39.801Z,77.84
2018-01-15T17:29:08.075Z,77.74
2018-01-15T17:31:36.359Z,77.36
2018-01-15T17:34:05.503Z,78.95
2018-01-15T17:36:33.826Z,78.67
2018-01-15T17:39:02.788Z,78.46
2018-01-15T17:41:31.132Z,78.53
2018-01-15T17:43:59.401Z,77.99
2018-01-15T17:46:27.683Z,78.04
2018-01-15T17:48:55.958Z,78.45
2018-01-15T17:51:24.235Z,79.15
2018-01-15T17:53:53.214Z,78.84
2018-01-15T17:56:21.778Z,78.34
2018-01-15T17:58:50.051Z,79.66
2018-01-15T18:01:18.300Z,79.82
2018-01-15T18:03:46.590Z,79.93
2018-01-15T18:06:14.839Z,78.91
2018-01-15T18:08:43.125Z,80.10
2018-01-15T18:11:11.357Z,79.54
2018-01-15T18:13:39.645Z,78.89
2018-01-15T18:16:07.895Z,79.93
2018-01-15T18:18:36.200Z,79.32
2018-01-15T18:21:04.466Z,80.52
2018-01-15T18:23:32.744Z,81.09
2018-01-15T18:26:01.015Z,81.53
2018-01-15T18:28:29.258Z,79.99
2018-01-15T18:30:57.526Z,79.50
2018-01-15T18:33:25.817Z,80.67
2018-01-15T18:35:54.075Z,80.08
2018-01-15T18:38:22.380Z,80.05
2018-01-15T18:40:50.661Z,80.77
2018-01-15T18:43:18.925Z,80.54
2018-01-15T18:45:47.237Z,80.15
2018-01-15T18:48:15.575Z,80.85
2018-01-15T18:50:43.868Z,80.12
2018-01-15T18:53:12.109Z,80.97
2018-01-15T18:55:40.476Z,81.09
2018-01-15T18:58:08.735Z,80.52
2018-01-15T19:00:37.076Z,80.93
2018-01-15T19:03:05.610Z,80.44
2018-01-15T19:05:33.848Z,80.01
2018-01-15T19:08:02.144Z,81.21
2018-01-15T19:10:30.377Z,80.38
2018-01-15T19:12:58.674Z,80.71
2018-01-15T19:15:26.919Z,80.39
2018-01-15T19:17:55.307Z,80.28
2018-01-15T19:20:23.506Z,80.27
2018-01-15T19:22:51.794Z,80.65
2018-01-15T19:25:20.065Z,80.35
2018-01-15T19:27:48.392Z,80.70
2018-01-15T19:30:16.704Z,80.66
2018-01-15T19:32:45.020Z,80.49
2018-01-15T19:35:16.718Z,80.23
2018-01-15T19:37:49.910Z,80.31
2018-01-15T19:40:18.171Z,80.37
2018-01-15T19:42:46.566Z,81.33
2018-01-15T19:45:20.474Z,81.34
2018-01-15T19:47:54.215Z,81.30
2018-01-15T19:50:28.214Z,81.02
2018-01-15T19:53:02.026Z,81.09
2018-01-15T19:55:35.958Z,81.27
2018-01-15T19:58:09.777Z,81.15
2018-01-15T20:00:43.776Z,80.98
2018-01-15T20:06:23.051Z,81.53
2018-01-15T20:08:57.006Z,82.33
2018-01-15T20:11:25.316Z,82.94
2018-01-15T20:13:53.559Z,82.25
2018-01-15T20:16:21.846Z,82.79
2018-01-15T20:18:50.151Z,82.46
2018-01-15T20:21:18.475Z,82.09
2018-01-15T20:23:46.776Z,82.20
2018-01-15T20:26:15.076Z,82.19
2018-01-15T20:28:43.338Z,82.25
2018-01-15T20:31:12.423Z,82.84
2018-01-15T20:33:40.707Z,82.77
2018-01-15T20:36:08.975Z,82.48
2018-01-15T20:38:37.293Z,83.04
2018-01-15T20:41:05.533Z,83.11
2018-01-15T20:43:33.854Z,82.51
2018-01-15T20:46:02.074Z,82.67
2018-01-15T20:48:30.355Z,82.82
2018-01-15T20:50:58.635Z,82.82
2018-01-15T20:53:26.904Z,83.34
2018-01-15T20:55:55.145Z,82.96
2018-01-15T20:58:23.418Z,82.72
2018-01-15T21:00:51.682Z,83.06
2018-01-15T21:03:19.935Z,82.78
2018-01-15T21:05:48.199Z,82.69
2018-01-15T21:08:16.474Z,82.43
2018-01-15T21:10:44.853Z,82.46
2018-01-15T21:13:13.111Z,83.41
2018-01-15T21:15:41.406Z,82.93
2018-01-15T21:18:09.648Z,83.32
2018-01-15T21:20:37.937Z,83.14
2018-01-15T21:23:06.230Z,83.15
2018-01-15T21:25:34.507Z,82.83
2018-01-15T21:28:02.785Z,83.32
2018-01-15T21:30:31.097Z,82.83
2018-01-15T21:32:59.460Z,82.73
2018-01-15T21:35:27.760Z,83.27
2018-01-15T21:37:56.048Z,83.31
2018-01-15T21:40:24.346Z,83.49
2018-01-15T21:42:52.633Z,83.83
2018-01-15T21:45:20.917Z,83.84
2018-01-15T21:47:49.171Z,84.26
2018-01-15T21:50:17.431Z,83.61
2018-01-15T21:52:45.755Z,83.55
2018-01-15T21:55:14.061Z,82.86
2018-01-15T21:57:42.365Z,83.01
2018-01-15T22:00:10.621Z,82.78
2018-01-15T22:02:38.952Z,82.96
2018-01-15T22:05:07.222Z,83.45
2018-01-15T22:07:35.506Z,83.42
2018-01-15T22:10:03.769Z,83.43
2018-01-15T22:12:32.059Z,84.00
2018-01-15T22:15:00.352Z,83.43
2018-01-15T22:17:28.627Z,83.58
2018-01-15T22:19:56.882Z,83.84
2018-01-15T22:22:25.192Z,84.25
2018-01-15T22:24:53.466Z,83.42
2018-01-15T22:27:21.743Z,83.94
2018-01-15T22:29:50.023Z,83.79
2018-01-15T22:32:18.642Z,83.64
2018-01-15T22:34:46.903Z,84.15
2018-01-15T22:37:15.357Z,83.75
2018-01-15T22:39:43.610Z,83.62
2018-01-15T22:42:11.881Z,83.55
2018-01-15T22:44:40.167Z,83.81
2018-01-15T22:47:08.432Z,84.24
2018-01-15T22:49:36.719Z,84.41
2018-01-15T22:52:05.701Z,84.52
2018-01-15T22:54:33.982Z,84.36
2018-01-15T22:57:02.281Z,84.78
2018-01-15T22:59:30.543Z,84.35
2018-01-15T23:01:58.841Z,84.55
2018-01-15T23:04:27.091Z,84.64
2018-01-15T23:06:55.453Z,84.71
2018-01-15T23:09:23.699Z,84.54
2018-01-15T23:11:51.978Z,84.58
2018-01-15T23:14:20.236Z,84.66
2018-01-15T23:16:48.520Z,84.83
2018-01-15T23:19:16.794Z,84.47
2018-01-15T23:21:45.098Z,84.43
2018-01-15T23:24:13.370Z,84.45
2018-01-15T23:26:41.624Z,84.79
2018-01-15T23:29:09.913Z,84.90
2018-01-15T23:31:38.172Z,84.87
2018-01-15T23:34:06.464Z,85.15
2018-01-15T23:36:34.717Z,85.02
2018-01-15T23:39:03.027Z,85.43
2018-01-15T23:41:31.280Z,85.28
2018-01-15T23:43:59.599Z,85.43
2018-01-15T23:46:27.850Z,85.18
2018-01-15T23:48:56.127Z,85.39
2018-01-15T23:51:24.384Z,85.47
2018-01-15T23:53:52.672Z,85.44
2018-01-15T23:56:20.926Z,85.51
2018-01-15T23:58:49.177Z,85.87
